Terminal Aerodrome Forecast
Issued by NWS Charleston, WV

Home | Current Version | Previous Version | Text Only | Print | Product List | Glossary On
Versions: 1 2 3 4 5 6 7 8 9 10 11 12 13 14 15 16 17 18 19 20 21 22 23 24 25 26 27 28
000
FTUS41 KRLX 210200 AAA
TAFCRW
TAF AMD
KCRW 210224Z 2102/2124 00000KT P6SM SCT150
     FM210400 00000KT 6SM BR SCT100
     FM210500 00000KT 4SM BR SCT080
     FM211000 00000KT 1SM BR BKN001
     FM211100 00000KT 1/2SM FG VV001
     FM211300 00000KT 1SM BR SCT001 BKN035
     FM211500 VRB03KT 6SM -SHRA BR BKN050
     FM211800 24005KT P6SM TSRA BKN035CB
     FM212000 24005KT P6SM VCTS BKN035CB=

USA.gov is the U.S. government's official web portal to all federal, state and local government web resources and services.